Aérodrome :
LOGIN :

S'inscrire | Disclaimer

   EN    FR    IT 

 










Légende :    VFR   VFR Marginal   IFR   IFR Intensif   IFR Très Intensif
Visi : 
Plafond : 
>= 8 km
>= 3000ft
5 à 8 km
1000 à 3000 ft
1500m à 5 km
500 à 1000 ft
800 à 1500m
200 à 500 ft
< 800m
< 200 ft
Symboles :   Orages  Brouillard  Fortes neiges  Fortes précipitations  Vent > 20 kt
SIGMETs :   Divers  Orages  Givrage  Turbulence  Onde Orograph.  Cendres Volcan.






- Altitude de l'aérodrome : 364 ft


LFAQ - Albert Bray

DERNIER METAR :
  • 091530Z AUTO 32019KT 9999 FEW037 OVC048 07/02 Q1014 BECMG 32015G25KT

METARs EXPIRÉS :
  • 091500Z AUTO 32022G33KT 9999 BKN039 OVC045 07/02 Q1013 NOSIG
  • 091430Z AUTO 32022KT 9999 BKN042 OVC150 07/03 Q1012 BECMG 32015G25KT
  • 091400Z AUTO 31023KT 9999 FEW037 SCT045 08/03 Q1011 BECMG 32022G35KT
  • 091330Z AUTO 32020KT 9999 OVC039 08/03 Q1010 BECMG 32022G35KT
  • 091300Z AUTO 32023KT 9999 BKN036 BKN046 BKN110 08/04 Q1009 BECMG 32022G35KT

TAF TAF LFAQ
Valide du 09 à 15h jusqu'au 10 à 00h UTC


091400Z 0915/0924 32022G35KT 9999 BKN035
BECMG 0916/0918 32015G25KT
BECMG 0919/0921 32015KT
BECMG 0922/0924 30005KT



MET'MAP, la Météo Aéronautique d'un coup d'oeil ! - Copyright ORBIFLY Décembre 2007 - Disclaimer

ORBIFLY MET'MAP TEAM :

Programmation & Développement : Alexandra Zaïnal
Sur une idée originale de : Baudouin d'Aumeries
Assistance à la programmation : Marc-Olivier Méhu
Soutien technique & logistique : Manuel Goepfert

Contact : metmap@orbifly.com




SOURCES & CREDITS :

   NOAA